createdAt,value
2022-09-26T00:00:13.382Z,20.96
2022-09-26T00:02:43.969Z,20.98
2022-09-26T00:05:13.657Z,21.00
2022-09-26T00:07:42.937Z,21.00
2022-09-26T00:10:12.525Z,20.93
2022-09-26T00:12:41.877Z,20.92
2022-09-26T00:15:12.143Z,20.91
2022-09-26T00:17:41.519Z,20.92
2022-09-26T00:20:11.371Z,20.90
2022-09-26T00:22:40.770Z,20.83
2022-09-26T00:25:10.542Z,20.78
2022-09-26T00:27:40.003Z,20.76
2022-09-26T00:30:09.815Z,20.72
2022-09-26T00:32:39.101Z,20.72
2022-09-26T00:35:14.635Z,20.68
2022-09-26T00:37:43.949Z,20.59
2022-09-26T00:40:13.426Z,20.53
2022-09-26T00:42:42.791Z,20.48
2022-09-26T00:45:12.853Z,20.43
2022-09-26T00:48:00.594Z,20.33
2022-09-26T00:50:43.515Z,20.25
2022-09-26T00:53:26.316Z,20.17
2022-09-26T00:56:07.304Z,20.08
2022-09-26T00:58:55.211Z,20.02
2022-09-26T01:01:25.934Z,19.92
2022-09-26T01:03:55.729Z,19.83
2022-09-26T01:06:25.234Z,19.78
2022-09-26T01:09:10.966Z,19.66
2022-09-26T01:11:43.487Z,19.56
2022-09-26T01:14:15.347Z,19.42
2022-09-26T01:16:49.778Z,19.27
2022-09-26T01:19:51.626Z,19.19
2022-09-26T01:22:47.288Z,19.09
2022-09-26T01:25:59.168Z,18.98
2022-09-26T01:28:55.912Z,18.83
2022-09-26T01:32:15.210Z,18.65
2022-09-26T01:35:19.744Z,18.50
2022-09-26T01:38:12.880Z,18.39
2022-09-26T01:41:30.252Z,18.31
2022-09-26T01:44:33.874Z,18.19
2022-09-26T01:47:47.685Z,18.03
2022-09-26T01:50:49.483Z,17.85
2022-09-26T01:53:25.626Z,17.75
2022-09-26T01:56:06.917Z,17.66
2022-09-26T01:59:01.112Z,17.58
2022-09-26T02:01:44.109Z,17.50
2022-09-26T02:04:23.038Z,17.42
2022-09-26T02:07:23.344Z,17.35
2022-09-26T02:10:06.819Z,17.27
2022-09-26T02:12:40.617Z,17.21
2022-09-26T02:15:17.303Z,17.14
2022-09-26T02:18:01.866Z,17.08
2022-09-26T02:20:39.595Z,17.02
2022-09-26T02:23:09.902Z,16.94
2022-09-26T02:25:39.188Z,16.88
2022-09-26T02:28:09.728Z,16.83
2022-09-26T02:30:40.385Z,16.80
2022-09-26T02:33:10.094Z,16.75
2022-09-26T02:35:58.685Z,16.70
2022-09-26T02:38:32.147Z,16.65
2022-09-26T02:41:44.952Z,16.62
2022-09-26T02:44:50.342Z,16.59
2022-09-26T02:47:37.228Z,16.53
2022-09-26T02:50:21.349Z,16.44
2022-09-26T02:53:34.098Z,16.38
2022-09-26T02:56:18.656Z,16.30
2022-09-26T02:58:50.740Z,16.22
2022-09-26T03:01:51.887Z,16.16
2022-09-26T03:05:04.837Z,16.08
2022-09-26T03:07:58.259Z,15.99
2022-09-26T03:10:31.898Z,15.93
2022-09-26T03:13:18.320Z,15.85
2022-09-26T03:15:55.148Z,15.84
2022-09-26T03:18:38.664Z,15.83
2022-09-26T03:21:08.390Z,15.82
2022-09-26T03:23:37.656Z,15.78
2022-09-26T03:26:17.832Z,15.74
2022-09-26T03:28:47.600Z,15.71
2022-09-26T03:31:16.993Z,15.65
2022-09-26T03:33:47.457Z,15.63
2022-09-26T03:36:17.288Z,15.59
2022-09-26T03:38:46.534Z,15.55
2022-09-26T03:41:16.097Z,15.52
2022-09-26T03:43:45.275Z,15.48
2022-09-26T03:46:15.721Z,15.46
2022-09-26T03:48:45.582Z,15.43
2022-09-26T03:51:16.310Z,15.40
2022-09-26T03:53:48.231Z,15.38
2022-09-26T03:56:21.122Z,15.34
2022-09-26T03:58:50.902Z,15.32
2022-09-26T04:01:23.948Z,15.31
2022-09-26T04:03:53.376Z,15.28
2022-09-26T04:06:23.076Z,15.26
2022-09-26T04:08:54.792Z,15.22
2022-09-26T04:11:26.136Z,15.16
2022-09-26T04:13:55.958Z,15.11
2022-09-26T04:16:26.521Z,15.05
2022-09-26T04:18:59.976Z,14.96
2022-09-26T04:21:29.724Z,14.89
2022-09-26T04:23:59.477Z,14.82
2022-09-26T04:26:29.338Z,14.79
2022-09-26T04:29:00.124Z,14.74
2022-09-26T04:31:30.096Z,14.69
2022-09-26T04:33:59.380Z,14.60
2022-09-26T04:36:28.798Z,14.53
2022-09-26T04:39:01.740Z,14.47
2022-09-26T04:41:32.463Z,14.43
2022-09-26T04:44:03.016Z,14.36
2022-09-26T04:46:33.248Z,14.32
2022-09-26T04:49:03.960Z,14.27
2022-09-26T04:51:34.225Z,14.23
2022-09-26T04:54:03.412Z,14.18
2022-09-26T04:56:33.387Z,14.13
2022-09-26T04:59:03.278Z,14.07
2022-09-26T05:01:32.337Z,14.02
2022-09-26T05:04:01.485Z,13.98
2022-09-26T05:06:30.530Z,13.92
2022-09-26T05:08:59.945Z,13.87
2022-09-26T05:11:29.273Z,13.84
2022-09-26T05:13:58.809Z,13.81
2022-09-26T05:16:29.262Z,13.79
2022-09-26T05:18:58.538Z,13.74
2022-09-26T05:21:28.309Z,13.69
2022-09-26T05:24:16.585Z,13.63
2022-09-26T05:26:54.795Z,13.57
2022-09-26T05:29:24.323Z,13.51
2022-09-26T05:31:55.641Z,13.47
2022-09-26T05:34:27.675Z,13.44
2022-09-26T05:36:57.523Z,13.37
2022-09-26T05:39:45.569Z,13.34
2022-09-26T05:42:16.386Z,13.29
2022-09-26T05:44:45.493Z,13.23
2022-09-26T05:47:14.863Z,13.17
2022-09-26T05:49:44.174Z,13.12
2022-09-26T05:52:13.682Z,13.05
2022-09-26T05:54:43.096Z,13.01
2022-09-26T05:57:14.015Z,12.97
2022-09-26T05:59:43.548Z,12.95
2022-09-26T06:02:17.234Z,12.92
2022-09-26T06:04:50.432Z,12.89
2022-09-26T06:07:20.393Z,12.87
2022-09-26T06:09:50.248Z,12.84
2022-09-26T06:12:20.690Z,12.83
2022-09-26T06:14:49.865Z,12.80
2022-09-26T06:17:19.341Z,12.77
2022-09-26T06:19:48.796Z,12.73
2022-09-26T06:22:17.877Z,12.65
2022-09-26T06:24:47.256Z,12.56
2022-09-26T06:27:16.669Z,12.48
2022-09-26T06:29:45.916Z,12.41
2022-09-26T06:32:15.189Z,12.37
2022-09-26T06:34:44.791Z,12.34
2022-09-26T06:37:14.141Z,12.34
2022-09-26T06:39:43.485Z,12.34
2022-09-26T06:42:12.910Z,12.33
2022-09-26T06:44:45.007Z,12.29
2022-09-26T06:47:14.738Z,12.27
2022-09-26T06:49:48.653Z,12.25
2022-09-26T06:52:18.051Z,12.25
2022-09-26T06:54:50.002Z,12.21
2022-09-26T06:57:19.521Z,12.18
2022-09-26T06:59:48.737Z,12.13
2022-09-26T07:02:18.117Z,12.07
2022-09-26T07:04:49.623Z,12.02
2022-09-26T07:07:18.908Z,11.95
2022-09-26T07:09:48.544Z,11.88
2022-09-26T07:12:18.030Z,11.80
2022-09-26T07:14:51.406Z,11.74
2022-09-26T07:17:22.818Z,11.69
2022-09-26T07:19:55.057Z,11.67
2022-09-26T07:22:24.483Z,11.62
2022-09-26T07:24:53.840Z,11.59
2022-09-26T07:27:23.097Z,11.56
2022-09-26T07:29:52.542Z,11.54
2022-09-26T07:32:21.771Z,11.51
2022-09-26T07:34:51.264Z,11.47
2022-09-26T07:37:20.684Z,11.40
2022-09-26T07:39:53.561Z,11.35
2022-09-26T07:42:24.190Z,11.29
2022-09-26T07:45:21.985Z,11.25
2022-09-26T07:48:01.173Z,11.21
2022-09-26T07:50:30.427Z,11.16
2022-09-26T07:52:59.626Z,11.11
2022-09-26T07:55:30.115Z,11.07
2022-09-26T07:58:00.243Z,11.04
2022-09-26T08:00:31.515Z,10.99
2022-09-26T08:03:05.858Z,10.97
2022-09-26T08:05:38.306Z,10.94
2022-09-26T08:08:07.759Z,10.89
2022-09-26T08:10:37.903Z,10.85
2022-09-26T08:13:07.313Z,10.84
2022-09-26T08:15:37.335Z,10.80
2022-09-26T08:18:06.807Z,10.76
2022-09-26T08:20:36.828Z,10.73
2022-09-26T08:23:06.206Z,10.71
2022-09-26T08:25:35.508Z,10.67
2022-09-26T08:28:10.946Z,10.63
2022-09-26T08:30:45.969Z,10.60
2022-09-26T08:33:15.836Z,10.57
2022-09-26T08:35:44.997Z,10.56
2022-09-26T08:38:16.298Z,10.50
2022-09-26T08:41:04.122Z,10.43
2022-09-26T08:44:04.841Z,10.34
2022-09-26T08:46:50.093Z,10.27
2022-09-26T08:49:31.177Z,10.21
2022-09-26T08:52:08.186Z,10.16
2022-09-26T08:54:44.380Z,10.12
2022-09-26T08:57:45.122Z,10.08
2022-09-26T09:00:21.273Z,10.07
2022-09-26T09:03:02.400Z,10.04
2022-09-26T09:05:47.513Z,9.95
2022-09-26T09:08:34.657Z,9.88
2022-09-26T09:11:22.871Z,9.81
2022-09-26T09:14:15.468Z,9.82
2022-09-26T09:17:28.399Z,9.83
2022-09-26T09:20:12.618Z,9.83
2022-09-26T09:23:25.054Z,9.82
2022-09-26T09:29:49.357Z,9.88
2022-09-26T09:32:28.848Z,9.92
2022-09-26T09:34:59.268Z,9.91
2022-09-26T09:37:42.084Z,9.89
2022-09-26T09:40:29.724Z,9.91
2022-09-26T09:43:37.816Z,9.89
2022-09-26T09:46:26.112Z,9.87
2022-09-26T09:49:10.509Z,9.83
2022-09-26T09:52:28.194Z,9.79
2022-09-26T09:55:27.746Z,9.74
2022-09-26T09:58:59.453Z,9.70
2022-09-26T10:01:44.189Z,9.61
2022-09-26T10:04:57.056Z,9.56
2022-09-26T10:07:26.258Z,9.50
2022-09-26T10:09:55.537Z,9.44
2022-09-26T10:12:30.748Z,9.37
2022-09-26T10:15:13.633Z,9.30
2022-09-26T10:18:00.886Z,9.21
2022-09-26T10:20:43.335Z,9.11
2022-09-26T10:23:34.105Z,9.05
2022-09-26T10:26:10.961Z,9.01
2022-09-26T10:28:50.441Z,8.99
2022-09-26T10:31:42.813Z,8.99
2022-09-26T10:34:35.170Z,8.99
2022-09-26T10:37:33.139Z,8.99
2022-09-26T10:40:21.031Z,8.92
2022-09-26T10:42:50.480Z,8.83
2022-09-26T10:45:28.368Z,8.77
2022-09-26T10:47:58.379Z,8.70
2022-09-26T10:50:30.673Z,8.69
2022-09-26T10:53:09.410Z,8.65
2022-09-26T10:56:06.663Z,8.61
2022-09-26T10:58:49.065Z,8.58
2022-09-26T11:01:32.388Z,8.51
2022-09-26T11:04:40.040Z,8.45
2022-09-26T11:07:20.221Z,8.43
2022-09-26T11:09:49.717Z,8.42
2022-09-26T11:12:36.439Z,8.39
2022-09-26T11:15:16.321Z,8.38
2022-09-26T11:17:54.921Z,8.36
2022-09-26T11:20:56.525Z,8.32
2022-09-26T11:23:48.782Z,8.32
2022-09-26T11:27:05.423Z,8.28
2022-09-26T11:29:54.022Z,8.24
2022-09-26T11:32:43.220Z,8.20
2022-09-26T11:36:23.743Z,8.15
2022-09-26T11:38:58.881Z,8.11
2022-09-26T11:42:06.498Z,8.08
2022-09-26T11:45:11.997Z,8.04
2022-09-26T11:48:20.890Z,7.98
2022-09-26T11:51:20.854Z,7.95
2022-09-26T11:54:03.625Z,7.95
2022-09-26T11:57:05.129Z,7.98
2022-09-26T12:00:25.377Z,7.96
2022-09-26T12:03:34.442Z,7.94
2022-09-26T12:06:46.702Z,7.91
2022-09-26T12:09:40.274Z,7.90
2022-09-26T12:12:43.543Z,7.89
2022-09-26T12:15:24.572Z,7.84
2022-09-26T12:18:28.214Z,7.80
2022-09-26T12:21:31.102Z,7.73
2022-09-26T12:24:25.158Z,7.66
2022-09-26T12:27:11.846Z,7.56
2022-09-26T12:30:15.571Z,7.53
2022-09-26T12:33:28.886Z,7.51
2022-09-26T12:36:52.124Z,7.49
2022-09-26T12:39:37.850Z,7.43
2022-09-26T12:42:44.167Z,7.41
2022-09-26T12:46:18.283Z,7.38
2022-09-26T12:49:54.723Z,7.29
2022-09-26T12:53:02.580Z,7.25
2022-09-26T12:55:50.227Z,7.22
2022-09-26T12:58:52.923Z,7.20
2022-09-26T13:01:48.693Z,7.15
2022-09-26T13:04:49.958Z,7.12
2022-09-26T13:07:45.089Z,7.08
2022-09-26T13:10:39.174Z,7.04
2022-09-26T13:13:48.438Z,7.01
2022-09-26T13:17:20.319Z,6.96
2022-09-26T13:20:20.067Z,6.90
2022-09-26T13:23:18.764Z,6.85
2022-09-26T13:26:31.931Z,6.82
2022-09-26T13:29:29.971Z,6.76
2022-09-26T13:32:14.144Z,6.72
2022-09-26T13:34:54.470Z,6.71
2022-09-26T13:37:44.360Z,6.73
2022-09-26T13:40:47.550Z,6.74
2022-09-26T13:43:48.538Z,6.79
2022-09-26T13:46:41.190Z,6.79
2022-09-26T13:49:37.849Z,6.78
2022-09-26T13:52:43.498Z,6.74
2022-09-26T13:55:22.810Z,6.72
2022-09-26T13:58:07.732Z,6.67
2022-09-26T14:00:41.696Z,6.66
2022-09-26T14:03:20.209Z,6.66
2022-09-26T14:06:08.994Z,6.64
2022-09-26T14:09:17.095Z,6.59
2022-09-26T14:11:52.905Z,6.57
2022-09-26T14:14:39.036Z,6.57
2022-09-26T14:17:46.312Z,6.56
2022-09-26T14:20:32.827Z,6.60
2022-09-26T14:23:04.419Z,6.67
2022-09-26T14:25:58.126Z,6.71
2022-09-26T14:28:54.457Z,6.71
2022-09-26T14:31:27.070Z,6.73
2022-09-26T14:34:18.953Z,6.73
2022-09-26T14:36:51.021Z,6.74
2022-09-26T14:39:38.196Z,6.72
2022-09-26T14:42:38.481Z,6.68
2022-09-26T14:45:19.617Z,6.67
2022-09-26T14:48:05.855Z,6.65
2022-09-26T14:50:52.412Z,6.66
2022-09-26T14:53:52.312Z,6.67
2022-09-26T14:56:51.170Z,6.67
2022-09-26T14:59:41.680Z,6.67
2022-09-26T15:02:16.938Z,6.68
2022-09-26T15:04:53.044Z,6.65
2022-09-26T15:07:28.533Z,6.65
2022-09-26T15:10:28.222Z,6.66
2022-09-26T15:13:20.141Z,6.70
2022-09-26T15:16:22.385Z,6.74
2022-09-26T15:19:12.803Z,6.78
2022-09-26T15:21:52.678Z,6.87
2022-09-26T15:24:37.806Z,6.97
2022-09-26T15:27:18.418Z,7.07
2022-09-26T15:30:06.457Z,7.18
2022-09-26T15:32:35.915Z,7.28
2022-09-26T15:35:06.000Z,7.34
2022-09-26T15:37:37.590Z,7.44
2022-09-26T15:40:30.012Z,7.51
2022-09-26T15:43:11.051Z,7.60
2022-09-26T15:45:50.339Z,7.69
2022-09-26T15:48:22.666Z,7.76
2022-09-26T15:51:20.714Z,7.85
2022-09-26T15:54:06.957Z,7.97
2022-09-26T15:56:50.055Z,8.10
2022-09-26T15:59:41.759Z,8.22
2022-09-26T16:02:32.017Z,8.38
2022-09-26T16:05:02.289Z,8.56
2022-09-26T16:07:32.133Z,8.70
2022-09-26T16:10:04.645Z,8.84
2022-09-26T16:12:35.108Z,8.98
2022-09-26T16:15:21.020Z,9.10
2022-09-26T16:17:58.264Z,9.22
2022-09-26T16:20:30.454Z,9.29
2022-09-26T16:23:05.851Z,9.37
2022-09-26T16:25:54.527Z,9.44
2022-09-26T16:28:43.582Z,9.52
2022-09-26T16:31:30.008Z,9.61
2022-09-26T16:34:02.227Z,9.69
2022-09-26T16:36:36.242Z,9.77
2022-09-26T16:39:10.006Z,9.87
2022-09-26T16:42:03.240Z,10.00
2022-09-26T16:44:42.682Z,10.16
2022-09-26T16:47:33.383Z,10.29
2022-09-26T16:50:29.048Z,10.43
2022-09-26T16:52:59.471Z,10.55
2022-09-26T16:55:30.146Z,10.65
2022-09-26T16:58:04.013Z,10.74
2022-09-26T17:00:54.533Z,10.84
2022-09-26T17:03:34.196Z,10.95
2022-09-26T17:06:03.873Z,11.06
2022-09-26T17:08:35.102Z,11.10
2022-09-26T17:11:14.519Z,11.17
2022-09-26T17:13:45.002Z,11.25
2022-09-26T17:16:14.957Z,11.35
2022-09-26T17:18:45.681Z,11.44
2022-09-26T17:21:15.150Z,11.53
2022-09-26T17:23:44.331Z,11.61
2022-09-26T17:26:24.658Z,11.69
2022-09-26T17:28:55.243Z,11.79
2022-09-26T17:31:24.722Z,11.88
2022-09-26T17:33:55.844Z,12.03
2022-09-26T17:36:29.418Z,12.14
2022-09-26T17:39:03.444Z,12.22
2022-09-26T17:41:35.459Z,12.31
2022-09-26T17:44:04.906Z,12.38
2022-09-26T17:46:34.567Z,12.51
2022-09-26T17:49:07.790Z,12.61
2022-09-26T17:51:37.829Z,12.68
2022-09-26T17:54:08.602Z,12.75
2022-09-26T17:56:38.150Z,12.81
2022-09-26T17:59:23.680Z,12.87
2022-09-26T18:01:59.336Z,12.95
2022-09-26T18:04:30.852Z,13.01
2022-09-26T18:07:05.730Z,13.09
2022-09-26T18:09:37.430Z,13.17
2022-09-26T18:12:07.866Z,13.29
2022-09-26T18:14:37.380Z,13.39
2022-09-26T18:17:07.306Z,13.50
2022-09-26T18:19:37.785Z,13.60
2022-09-26T18:22:19.769Z,13.73
2022-09-26T18:24:53.063Z,13.87
2022-09-26T18:27:24.186Z,14.08
2022-09-26T18:29:53.675Z,14.17
2022-09-26T18:32:34.360Z,14.23
2022-09-26T18:35:04.169Z,14.34
2022-09-26T18:37:34.026Z,14.43
2022-09-26T18:40:04.590Z,14.49
2022-09-26T18:42:34.421Z,14.59
2022-09-26T18:45:06.950Z,14.67
2022-09-26T18:47:45.955Z,14.74
2022-09-26T18:50:42.314Z,14.83
2022-09-26T18:53:20.934Z,14.96
2022-09-26T18:56:08.967Z,15.07
2022-09-26T18:58:39.162Z,15.21
2022-09-26T19:01:28.672Z,15.27
2022-09-26T19:04:05.093Z,15.33
2022-09-26T19:06:42.827Z,15.37
2022-09-26T19:09:22.463Z,15.42
2022-09-26T19:11:51.729Z,15.51
2022-09-26T19:14:26.759Z,15.62
2022-09-26T19:16:57.457Z,15.71
2022-09-26T19:19:29.523Z,15.78
2022-09-26T19:22:03.046Z,15.87
2022-09-26T19:24:57.163Z,15.98
2022-09-26T19:27:39.756Z,16.06
2022-09-26T19:30:22.198Z,16.15
2022-09-26T19:32:54.449Z,16.26
2022-09-26T19:35:35.569Z,16.35
2022-09-26T19:38:27.583Z,16.52
2022-09-26T19:40:57.755Z,16.65
2022-09-26T19:43:27.173Z,16.76
2022-09-26T19:45:57.230Z,16.86
2022-09-26T19:48:26.869Z,17.00
2022-09-26T19:50:56.877Z,17.09
2022-09-26T19:53:26.332Z,17.21
2022-09-26T19:55:56.846Z,17.29
2022-09-26T19:58:31.389Z,17.33
2022-09-26T20:01:11.273Z,17.40
2022-09-26T20:03:44.827Z,17.44
2022-09-26T20:06:20.372Z,17.49
2022-09-26T20:08:51.321Z,17.62
2022-09-26T20:11:23.315Z,17.72
2022-09-26T20:14:11.307Z,17.84
2022-09-26T20:16:47.122Z,18.11
2022-09-26T20:19:26.024Z,18.23
2022-09-26T20:21:55.457Z,18.20
2022-09-26T20:24:24.629Z,18.20
2022-09-26T20:26:54.246Z,18.31
2022-09-26T20:29:24.159Z,18.42
2022-09-26T20:31:53.328Z,18.41
2022-09-26T20:34:22.915Z,18.44
2022-09-26T20:36:53.477Z,18.48
2022-09-26T20:39:28.464Z,18.59
2022-09-26T20:41:58.447Z,18.77
2022-09-26T20:44:34.768Z,18.89
2022-09-26T20:47:07.480Z,18.96
2022-09-26T20:49:55.648Z,19.07
2022-09-26T20:52:28.731Z,19.36
2022-09-26T20:54:59.595Z,19.50
2022-09-26T20:57:29.741Z,19.61
2022-09-26T20:59:59.503Z,19.70
2022-09-26T21:02:33.559Z,19.80
2022-09-26T21:05:04.358Z,19.84
2022-09-26T21:07:34.906Z,19.89
2022-09-26T21:10:10.661Z,19.92
2022-09-26T21:12:43.217Z,19.96
2022-09-26T21:15:14.179Z,19.99
2022-09-26T21:17:45.720Z,19.99
2022-09-26T21:20:25.241Z,20.00
2022-09-26T21:22:56.556Z,20.07
2022-09-26T21:25:30.173Z,20.20
2022-09-26T21:28:27.466Z,20.37
2022-09-26T21:31:01.765Z,20.42
2022-09-26T21:33:31.250Z,20.44
2022-09-26T21:36:00.632Z,20.52
2022-09-26T21:38:31.346Z,20.58
2022-09-26T21:41:03.073Z,20.62
2022-09-26T21:43:44.680Z,20.70
2022-09-26T21:46:14.005Z,20.75
2022-09-26T21:48:44.111Z,20.76
2022-09-26T21:51:14.208Z,20.76
2022-09-26T21:53:57.605Z,20.78
2022-09-26T21:56:34.386Z,20.81
2022-09-26T21:59:05.569Z,20.88
2022-09-26T22:01:34.761Z,20.91
2022-09-26T22:04:04.307Z,20.94
2022-09-26T22:06:35.779Z,21.06
2022-09-26T22:09:04.959Z,21.14
2022-09-26T22:11:34.182Z,21.18
2022-09-26T22:14:03.625Z,21.18
2022-09-26T22:16:32.971Z,21.15
2022-09-26T22:19:02.552Z,21.15
2022-09-26T22:21:32.253Z,21.17
2022-09-26T22:24:01.933Z,21.18
2022-09-26T22:26:31.254Z,21.16
2022-09-26T22:29:00.659Z,21.11
2022-09-26T22:31:29.810Z,21.07
2022-09-26T22:34:01.112Z,21.04
2022-09-26T22:36:30.383Z,21.01
2022-09-26T22:39:00.218Z,20.99
2022-09-26T22:41:29.688Z,20.99
2022-09-26T22:43:59.089Z,20.95
2022-09-26T22:46:28.550Z,20.92
2022-09-26T22:48:58.097Z,20.91
2022-09-26T22:51:27.464Z,20.88
2022-09-26T22:53:56.915Z,20.87
2022-09-26T22:56:26.422Z,20.86
2022-09-26T22:58:55.921Z,20.86
2022-09-26T23:01:29.479Z,20.86
2022-09-26T23:04:01.605Z,20.84
2022-09-26T23:06:32.729Z,20.84
2022-09-26T23:09:02.199Z,20.80
2022-09-26T23:11:32.153Z,20.78
2022-09-26T23:14:01.462Z,20.77
2022-09-26T23:16:30.914Z,20.82
2022-09-26T23:19:00.970Z,20.83
2022-09-26T23:21:30.642Z,20.81
2022-09-26T23:24:00.092Z,20.78
2022-09-26T23:26:33.090Z,20.74
2022-09-26T23:29:03.095Z,20.75
2022-09-26T23:31:32.645Z,20.76
2022-09-26T23:34:02.221Z,20.77
2022-09-26T23:36:31.566Z,20.75
2022-09-26T23:39:01.195Z,20.76
2022-09-26T23:41:31.440Z,20.77
2022-09-26T23:44:00.661Z,20.81
2022-09-26T23:46:29.833Z,20.90
2022-09-26T23:48:59.491Z,20.97
2022-09-26T23:51:29.005Z,21.05
2022-09-26T23:53:58.303Z,21.15
2022-09-26T23:56:27.477Z,21.29
2022-09-26T23:58:58.637Z,21.35
